Lemoyne, Nebraska
Current Conditions -  °F | °C
As of 6:15 AM on Sunday 23 Nov 2014 (Local Time) from KOGA Reporting Station
Scattered Clouds Scattered Clouds  
Wind Chill: 33°   Ceiling: Unl
Heat Index: 41°   Visibility: 10mi
Dew Point: 26°   Wind: 14mph
Humidity: 55%   Direction: 330°NNW
Pressure: 29.66"   Gusts: 18mph
Location:  41.27°N, 101.81°W
Report Text: KOGA 231315Z AUTO 33012G16KT 10SM SCT110 05/M03 A2966 RMK AO2 T00501033
Loading
Personal Weather Stations






























Interactive Weather Map New forecast layout! Learn more

10-Day Weather Forecast

Advertisements
Track Severe Weather on mobile